sensor_id;sensor_type;location;lat;lon;timestamp;temperature;humidity
16229;DHT22;8222;51.462;12.630;2023-05-07T00:01:54;11.40;99.90
16229;DHT22;8222;51.462;12.630;2023-05-07T00:04:23;11.30;99.90
16229;DHT22;8222;51.462;12.630;2023-05-07T00:06:51;11.20;99.90
16229;DHT22;8222;51.462;12.630;2023-05-07T00:09:21;11.10;99.90
16229;DHT22;8222;51.462;12.630;2023-05-07T00:11:47;11.00;99.90
16229;DHT22;8222;51.462;12.630;2023-05-07T00:14:12;11.10;99.90
16229;DHT22;8222;51.462;12.630;2023-05-07T00:16:40;11.00;99.90
16229;DHT22;8222;51.462;12.630;2023-05-07T00:19:11;10.90;99.90
16229;DHT22;8222;51.462;12.630;2023-05-07T00:21:39;11.00;99.90
16229;DHT22;8222;51.462;12.630;2023-05-07T00:24:05;10.90;99.90
16229;DHT22;8222;51.462;12.630;2023-05-07T00:26:32;10.80;99.90
16229;DHT22;8222;51.462;12.630;2023-05-07T00:29:06;10.70;99.90
16229;DHT22;8222;51.462;12.630;2023-05-07T00:31:32;10.70;99.90
16229;DHT22;8222;51.462;12.630;2023-05-07T00:33:57;10.60;99.90
16229;DHT22;8222;51.462;12.630;2023-05-07T00:36:23;10.60;99.90
16229;DHT22;8222;51.462;12.630;2023-05-07T00:38:51;10.60;99.90
16229;DHT22;8222;51.462;12.630;2023-05-07T00:41:25;10.60;99.90
16229;DHT22;8222;51.462;12.630;2023-05-07T00:43:51;10.60;99.90
16229;DHT22;8222;51.462;12.630;2023-05-07T00:46:20;10.60;99.90
16229;DHT22;8222;51.462;12.630;2023-05-07T00:48:47;10.70;99.90
16229;DHT22;8222;51.462;12.630;2023-05-07T00:51:16;10.70;99.90
16229;DHT22;8222;51.462;12.630;2023-05-07T00:53:45;10.70;99.90
16229;DHT22;8222;51.462;12.630;2023-05-07T00:56:12;10.70;99.90
16229;DHT22;8222;51.462;12.630;2023-05-07T00:58:40;10.90;99.90
16229;DHT22;8222;51.462;12.630;2023-05-07T01:01:11;10.80;99.90
16229;DHT22;8222;51.462;12.630;2023-05-07T01:03:36;10.70;99.90
16229;DHT22;8222;51.462;12.630;2023-05-07T01:06:02;10.60;99.90
16229;DHT22;8222;51.462;12.630;2023-05-07T01:08:34;10.60;99.90
16229;DHT22;8222;51.462;12.630;2023-05-07T01:11:00;10.50;99.90
16229;DHT22;8222;51.462;12.630;2023-05-07T01:13:33;10.60;99.90
16229;DHT22;8222;51.462;12.630;2023-05-07T01:15:59;10.60;99.90
16229;DHT22;8222;51.462;12.630;2023-05-07T01:18:25;10.60;99.90
16229;DHT22;8222;51.462;12.630;2023-05-07T01:20:52;10.60;99.90
16229;DHT22;8222;51.462;12.630;2023-05-07T01:23:19;10.60;99.90
16229;DHT22;8222;51.462;12.630;2023-05-07T01:25:55;10.60;99.90
16229;DHT22;8222;51.462;12.630;2023-05-07T01:28:20;10.70;99.90
16229;DHT22;8222;51.462;12.630;2023-05-07T01:30:54;10.90;99.90
16229;DHT22;8222;51.462;12.630;2023-05-07T01:33:22;11.00;99.90
16229;DHT22;8222;51.462;12.630;2023-05-07T01:35:55;10.90;99.90
16229;DHT22;8222;51.462;12.630;2023-05-07T01:38:22;10.80;99.90
16229;DHT22;8222;51.462;12.630;2023-05-07T01:40:51;10.90;99.90
16229;DHT22;8222;51.462;12.630;2023-05-07T01:43:21;10.90;99.90
16229;DHT22;8222;51.462;12.630;2023-05-07T01:45:49;11.10;99.90
16229;DHT22;8222;51.462;12.630;2023-05-07T01:48:20;11.10;99.90
16229;DHT22;8222;51.462;12.630;2023-05-07T01:50:49;11.00;99.90
16229;DHT22;8222;51.462;12.630;2023-05-07T01:53:15;10.90;99.90
16229;DHT22;8222;51.462;12.630;2023-05-07T01:55:41;10.80;99.90
16229;DHT22;8222;51.462;12.630;2023-05-07T01:58:07;10.80;99.90
16229;DHT22;8222;51.462;12.630;2023-05-07T02:00:33;10.70;99.90
16229;DHT22;8222;51.462;12.630;2023-05-07T02:03:00;10.70;99.90
16229;DHT22;8222;51.462;12.630;2023-05-07T02:05:28;10.70;99.90
16229;DHT22;8222;51.462;12.630;2023-05-07T02:07:56;10.70;99.90
16229;DHT22;8222;51.462;12.630;2023-05-07T02:10:24;10.60;99.90
16229;DHT22;8222;51.462;12.630;2023-05-07T02:12:53;10.80;99.90
16229;DHT22;8222;51.462;12.630;2023-05-07T02:15:21;10.90;99.90
16229;DHT22;8222;51.462;12.630;2023-05-07T02:18:05;10.80;99.90
16229;DHT22;8222;51.462;12.630;2023-05-07T02:20:35;10.90;99.90
16229;DHT22;8222;51.462;12.630;2023-05-07T02:23:05;10.80;99.90
16229;DHT22;8222;51.462;12.630;2023-05-07T02:25:31;10.80;99.90
16229;DHT22;8222;51.462;12.630;2023-05-07T02:27:59;10.90;99.90
16229;DHT22;8222;51.462;12.630;2023-05-07T02:30:25;10.90;99.90
16229;DHT22;8222;51.462;12.630;2023-05-07T02:32:51;10.90;99.90
16229;DHT22;8222;51.462;12.630;2023-05-07T02:35:21;10.80;99.90
16229;DHT22;8222;51.462;12.630;2023-05-07T02:37:47;10.70;99.90
16229;DHT22;8222;51.462;12.630;2023-05-07T02:40:15;10.70;99.90
16229;DHT22;8222;51.462;12.630;2023-05-07T02:42:40;10.70;99.90
16229;DHT22;8222;51.462;12.630;2023-05-07T02:45:06;10.70;99.90
16229;DHT22;8222;51.462;12.630;2023-05-07T02:47:37;10.90;99.90
16229;DHT22;8222;51.462;12.630;2023-05-07T02:50:06;10.90;99.90
16229;DHT22;8222;51.462;12.630;2023-05-07T02:52:32;11.00;99.90
16229;DHT22;8222;51.462;12.630;2023-05-07T02:55:00;11.00;99.90
16229;DHT22;8222;51.462;12.630;2023-05-07T02:57:28;11.00;99.90
16229;DHT22;8222;51.462;12.630;2023-05-07T02:59:58;11.00;99.90
16229;DHT22;8222;51.462;12.630;2023-05-07T03:02:24;11.00;99.90
16229;DHT22;8222;51.462;12.630;2023-05-07T03:04:50;10.90;99.90
16229;DHT22;8222;51.462;12.630;2023-05-07T03:07:16;10.90;99.90
16229;DHT22;8222;51.462;12.630;2023-05-07T03:09:44;10.90;99.90
16229;DHT22;8222;51.462;12.630;2023-05-07T03:12:09;11.00;99.90
16229;DHT22;8222;51.462;12.630;2023-05-07T03:14:35;11.00;99.90
16229;DHT22;8222;51.462;12.630;2023-05-07T03:17:05;11.10;99.90
16229;DHT22;8222;51.462;12.630;2023-05-07T03:19:31;11.10;99.90
16229;DHT22;8222;51.462;12.630;2023-05-07T03:22:01;11.10;99.90
16229;DHT22;8222;51.462;12.630;2023-05-07T03:24:29;11.00;99.90
16229;DHT22;8222;51.462;12.630;2023-05-07T03:27:01;11.00;99.90
16229;DHT22;8222;51.462;12.630;2023-05-07T03:29:27;10.90;99.90
16229;DHT22;8222;51.462;12.630;2023-05-07T03:31:53;10.80;99.90
16229;DHT22;8222;51.462;12.630;2023-05-07T03:34:21;10.90;99.90
16229;DHT22;8222;51.462;12.630;2023-05-07T03:36:52;11.10;99.90
16229;DHT22;8222;51.462;12.630;2023-05-07T03:39:20;11.20;99.90
16229;DHT22;8222;51.462;12.630;2023-05-07T03:41:46;11.30;99.90
16229;DHT22;8222;51.462;12.630;2023-05-07T03:44:12;11.20;99.90
16229;DHT22;8222;51.462;12.630;2023-05-07T03:46:40;11.20;99.90
16229;DHT22;8222;51.462;12.630;2023-05-07T03:49:06;11.20;99.90
16229;DHT22;8222;51.462;12.630;2023-05-07T03:51:36;11.00;99.90
16229;DHT22;8222;51.462;12.630;2023-05-07T03:54:02;10.90;99.90
16229;DHT22;8222;51.462;12.630;2023-05-07T03:56:30;10.90;99.90
16229;DHT22;8222;51.462;12.630;2023-05-07T03:58:56;10.90;99.90
16229;DHT22;8222;51.462;12.630;2023-05-07T04:01:24;10.90;99.90
16229;DHT22;8222;51.462;12.630;2023-05-07T04:03:50;10.90;99.90
16229;DHT22;8222;51.462;12.630;2023-05-07T04:06:18;10.80;99.90
16229;DHT22;8222;51.462;12.630;2023-05-07T04:08:46;10.70;99.90
16229;DHT22;8222;51.462;12.630;2023-05-07T04:11:12;10.70;99.90
16229;DHT22;8222;51.462;12.630;2023-05-07T04:13:40;10.60;99.90
16229;DHT22;8222;51.462;12.630;2023-05-07T04:16:06;10.80;99.90
16229;DHT22;8222;51.462;12.630;2023-05-07T04:18:32;10.80;99.90
16229;DHT22;8222;51.462;12.630;2023-05-07T04:21:00;10.80;99.90
16229;DHT22;8222;51.462;12.630;2023-05-07T04:23:26;10.80;99.90
16229;DHT22;8222;51.462;12.630;2023-05-07T04:25:54;10.80;99.90
16229;DHT22;8222;51.462;12.630;2023-05-07T04:28:22;10.90;99.90
16229;DHT22;8222;51.462;12.630;2023-05-07T04:30:48;10.90;99.90
16229;DHT22;8222;51.462;12.630;2023-05-07T04:33:21;10.90;99.90
16229;DHT22;8222;51.462;12.630;2023-05-07T04:35:49;10.90;99.90
16229;DHT22;8222;51.462;12.630;2023-05-07T04:38:15;10.90;99.90
16229;DHT22;8222;51.462;12.630;2023-05-07T04:40:41;10.90;99.90
16229;DHT22;8222;51.462;12.630;2023-05-07T04:43:07;10.90;99.90
16229;DHT22;8222;51.462;12.630;2023-05-07T04:45:36;10.90;99.90
16229;DHT22;8222;51.462;12.630;2023-05-07T04:48:02;10.90;99.90
16229;DHT22;8222;51.462;12.630;2023-05-07T04:50:30;10.90;99.90
16229;DHT22;8222;51.462;12.630;2023-05-07T04:52:56;10.90;99.90
16229;DHT22;8222;51.462;12.630;2023-05-07T04:55:24;11.00;99.90
16229;DHT22;8222;51.462;12.630;2023-05-07T04:57:50;10.90;99.90
16229;DHT22;8222;51.462;12.630;2023-05-07T05:00:18;10.80;99.90
16229;DHT22;8222;51.462;12.630;2023-05-07T05:02:45;10.80;99.90
16229;DHT22;8222;51.462;12.630;2023-05-07T05:05:11;10.80;99.90
16229;DHT22;8222;51.462;12.630;2023-05-07T05:07:39;10.90;99.90
16229;DHT22;8222;51.462;12.630;2023-05-07T05:10:05;10.90;99.90
16229;DHT22;8222;51.462;12.630;2023-05-07T05:12:31;11.10;99.90
16229;DHT22;8222;51.462;12.630;2023-05-07T05:14:57;11.00;99.90
16229;DHT22;8222;51.462;12.630;2023-05-07T05:17:23;11.00;99.90
16229;DHT22;8222;51.462;12.630;2023-05-07T05:19:48;11.00;99.90
16229;DHT22;8222;51.462;12.630;2023-05-07T05:22:14;11.20;99.90
16229;DHT22;8222;51.462;12.630;2023-05-07T05:24:42;11.20;99.90
16229;DHT22;8222;51.462;12.630;2023-05-07T05:27:12;11.30;99.90
16229;DHT22;8222;51.462;12.630;2023-05-07T05:29:38;11.20;99.90
16229;DHT22;8222;51.462;12.630;2023-05-07T05:32:04;11.20;99.90
16229;DHT22;8222;51.462;12.630;2023-05-07T05:34:32;11.20;99.90
16229;DHT22;8222;51.462;12.630;2023-05-07T05:36:59;11.10;99.90
16229;DHT22;8222;51.462;12.630;2023-05-07T05:39:24;11.20;99.90
16229;DHT22;8222;51.462;12.630;2023-05-07T05:41:50;11.30;99.90
16229;DHT22;8222;51.462;12.630;2023-05-07T05:44:21;11.20;99.90
16229;DHT22;8222;51.462;12.630;2023-05-07T05:46:49;11.30;99.90
16229;DHT22;8222;51.462;12.630;2023-05-07T05:49:17;11.20;99.90
16229;DHT22;8222;51.462;12.630;2023-05-07T05:51:44;11.40;99.90
16229;DHT22;8222;51.462;12.630;2023-05-07T05:54:10;11.40;99.90
16229;DHT22;8222;51.462;12.630;2023-05-07T05:56:36;11.70;99.90
16229;DHT22;8222;51.462;12.630;2023-05-07T05:59:04;11.80;99.90
16229;DHT22;8222;51.462;12.630;2023-05-07T06:01:33;11.90;99.90
16229;DHT22;8222;51.462;12.630;2023-05-07T06:03:59;12.00;99.90
16229;DHT22;8222;51.462;12.630;2023-05-07T06:06:27;12.20;99.90
16229;DHT22;8222;51.462;12.630;2023-05-07T06:08:56;12.10;99.90
16229;DHT22;8222;51.462;12.630;2023-05-07T06:11:22;12.00;99.90
16229;DHT22;8222;51.462;12.630;2023-05-07T06:13:48;12.00;99.90
16229;DHT22;8222;51.462;12.630;2023-05-07T06:16:14;12.00;99.90
16229;DHT22;8222;51.462;12.630;2023-05-07T06:18:42;12.20;99.90
16229;DHT22;8222;51.462;12.630;2023-05-07T06:21:10;12.30;99.90
16229;DHT22;8222;51.462;12.630;2023-05-07T06:23:35;12.70;99.90
16229;DHT22;8222;51.462;12.630;2023-05-07T06:26:06;12.90;99.90
16229;DHT22;8222;51.462;12.630;2023-05-07T06:28:32;12.90;99.90
16229;DHT22;8222;51.462;12.630;2023-05-07T06:31:16;12.70;99.90
16229;DHT22;8222;51.462;12.630;2023-05-07T06:33:42;12.60;99.90
16229;DHT22;8222;51.462;12.630;2023-05-07T06:36:08;12.60;99.90
16229;DHT22;8222;51.462;12.630;2023-05-07T06:38:36;12.70;99.90
16229;DHT22;8222;51.462;12.630;2023-05-07T06:41:06;12.60;99.90
16229;DHT22;8222;51.462;12.630;2023-05-07T06:43:31;12.70;99.90
16229;DHT22;8222;51.462;12.630;2023-05-07T06:46:00;12.60;99.90
16229;DHT22;8222;51.462;12.630;2023-05-07T06:48:25;12.60;99.90
16229;DHT22;8222;51.462;12.630;2023-05-07T06:50:51;12.60;99.90
16229;DHT22;8222;51.462;12.630;2023-05-07T06:53:19;12.80;99.90
16229;DHT22;8222;51.462;12.630;2023-05-07T06:55:48;12.90;99.90
16229;DHT22;8222;51.462;12.630;2023-05-07T06:58:18;13.00;99.90
16229;DHT22;8222;51.462;12.630;2023-05-07T07:00:46;13.10;99.90
16229;DHT22;8222;51.462;12.630;2023-05-07T07:03:12;13.20;99.90
16229;DHT22;8222;51.462;12.630;2023-05-07T07:05:38;13.00;99.90
16229;DHT22;8222;51.462;12.630;2023-05-07T07:08:06;13.00;99.90
16229;DHT22;8222;51.462;12.630;2023-05-07T07:10:34;13.00;99.90
16229;DHT22;8222;51.462;12.630;2023-05-07T07:12:59;12.90;99.90
16229;DHT22;8222;51.462;12.630;2023-05-07T07:15:26;12.70;99.90
16229;DHT22;8222;51.462;12.630;2023-05-07T07:17:52;12.70;99.90
16229;DHT22;8222;51.462;12.630;2023-05-07T07:20:17;12.80;99.90
16229;DHT22;8222;51.462;12.630;2023-05-07T07:22:45;12.80;99.90
16229;DHT22;8222;51.462;12.630;2023-05-07T07:25:11;12.80;99.90
16229;DHT22;8222;51.462;12.630;2023-05-07T07:27:40;12.80;99.90
16229;DHT22;8222;51.462;12.630;2023-05-07T07:30:08;12.50;99.90
16229;DHT22;8222;51.462;12.630;2023-05-07T07:32:34;12.40;99.90
16229;DHT22;8222;51.462;12.630;2023-05-07T07:35:00;12.50;99.90
16229;DHT22;8222;51.462;12.630;2023-05-07T07:37:28;12.60;99.90
16229;DHT22;8222;51.462;12.630;2023-05-07T07:39:59;12.70;99.90
16229;DHT22;8222;51.462;12.630;2023-05-07T07:42:28;12.70;99.90
16229;DHT22;8222;51.462;12.630;2023-05-07T07:44:57;12.50;99.90
16229;DHT22;8222;51.462;12.630;2023-05-07T07:47:25;12.50;99.90
16229;DHT22;8222;51.462;12.630;2023-05-07T07:49:51;12.40;99.90
16229;DHT22;8222;51.462;12.630;2023-05-07T07:52:18;12.50;99.90
16229;DHT22;8222;51.462;12.630;2023-05-07T07:54:44;12.60;99.90
16229;DHT22;8222;51.462;12.630;2023-05-07T07:57:10;12.50;99.90
16229;DHT22;8222;51.462;12.630;2023-05-07T07:59:38;12.60;99.90
16229;DHT22;8222;51.462;12.630;2023-05-07T08:02:07;12.60;99.90
16229;DHT22;8222;51.462;12.630;2023-05-07T08:04:33;12.60;99.90
16229;DHT22;8222;51.462;12.630;2023-05-07T08:06:58;12.60;99.90
16229;DHT22;8222;51.462;12.630;2023-05-07T08:09:26;12.60;99.90
16229;DHT22;8222;51.462;12.630;2023-05-07T08:11:52;12.70;99.90
16229;DHT22;8222;51.462;12.630;2023-05-07T08:14:20;12.70;99.90
16229;DHT22;8222;51.462;12.630;2023-05-07T08:16:46;12.90;99.90
16229;DHT22;8222;51.462;12.630;2023-05-07T08:19:12;12.90;99.90
16229;DHT22;8222;51.462;12.630;2023-05-07T08:21:40;12.90;99.90
16229;DHT22;8222;51.462;12.630;2023-05-07T08:24:06;12.90;99.90
16229;DHT22;8222;51.462;12.630;2023-05-07T08:26:36;13.20;99.90
16229;DHT22;8222;51.462;12.630;2023-05-07T08:29:07;13.30;99.90
16229;DHT22;8222;51.462;12.630;2023-05-07T08:31:33;13.40;99.90
16229;DHT22;8222;51.462;12.630;2023-05-07T08:34:01;13.20;99.90
16229;DHT22;8222;51.462;12.630;2023-05-07T08:36:26;13.20;99.90
16229;DHT22;8222;51.462;12.630;2023-05-07T08:38:56;13.20;99.90
16229;DHT22;8222;51.462;12.630;2023-05-07T08:41:21;13.30;99.90
16229;DHT22;8222;51.462;12.630;2023-05-07T08:43:51;13.30;99.90
16229;DHT22;8222;51.462;12.630;2023-05-07T08:46:18;13.30;99.90
16229;DHT22;8222;51.462;12.630;2023-05-07T08:48:45;13.30;99.90
16229;DHT22;8222;51.462;12.630;2023-05-07T08:51:15;13.30;99.90
16229;DHT22;8222;51.462;12.630;2023-05-07T08:53:41;13.30;99.90
16229;DHT22;8222;51.462;12.630;2023-05-07T08:56:10;13.10;99.90
16229;DHT22;8222;51.462;12.630;2023-05-07T08:58:43;13.30;99.90
16229;DHT22;8222;51.462;12.630;2023-05-07T09:01:10;13.40;99.90
16229;DHT22;8222;51.462;12.630;2023-05-07T09:03:38;13.40;99.90
16229;DHT22;8222;51.462;12.630;2023-05-07T09:06:05;13.40;99.90
16229;DHT22;8222;51.462;12.630;2023-05-07T09:08:34;13.30;99.90
16229;DHT22;8222;51.462;12.630;2023-05-07T09:11:00;13.40;99.90
16229;DHT22;8222;51.462;12.630;2023-05-07T09:13:30;13.40;99.90
16229;DHT22;8222;51.462;12.630;2023-05-07T09:15:56;13.20;99.90
16229;DHT22;8222;51.462;12.630;2023-05-07T09:18:24;13.20;99.90
16229;DHT22;8222;51.462;12.630;2023-05-07T09:20:50;13.20;99.90
16229;DHT22;8222;51.462;12.630;2023-05-07T09:23:16;13.40;99.90
16229;DHT22;8222;51.462;12.630;2023-05-07T09:25:42;13.70;99.90
16229;DHT22;8222;51.462;12.630;2023-05-07T09:28:07;13.60;99.90
16229;DHT22;8222;51.462;12.630;2023-05-07T09:30:35;13.50;99.90
16229;DHT22;8222;51.462;12.630;2023-05-07T09:33:03;13.40;99.90
16229;DHT22;8222;51.462;12.630;2023-05-07T09:35:29;13.20;99.90
16229;DHT22;8222;51.462;12.630;2023-05-07T09:37:56;13.20;99.90
16229;DHT22;8222;51.462;12.630;2023-05-07T09:40:24;13.40;99.90
16229;DHT22;8222;51.462;12.630;2023-05-07T09:42:50;13.30;99.90
16229;DHT22;8222;51.462;12.630;2023-05-07T09:45:28;13.50;99.90
16229;DHT22;8222;51.462;12.630;2023-05-07T09:47:56;13.60;99.90
16229;DHT22;8222;51.462;12.630;2023-05-07T09:50:32;13.60;99.90
16229;DHT22;8222;51.462;12.630;2023-05-07T09:53:04;13.70;99.90
16229;DHT22;8222;51.462;12.630;2023-05-07T09:55:33;13.70;99.90
16229;DHT22;8222;51.462;12.630;2023-05-07T09:57:59;13.80;99.90
16229;DHT22;8222;51.462;12.630;2023-05-07T10:00:30;13.90;99.90
16229;DHT22;8222;51.462;12.630;2023-05-07T10:02:57;14.00;99.90
16229;DHT22;8222;51.462;12.630;2023-05-07T10:05:26;13.90;99.90
16229;DHT22;8222;51.462;12.630;2023-05-07T10:07:53;13.80;99.90
16229;DHT22;8222;51.462;12.630;2023-05-07T10:10:19;13.80;99.90
16229;DHT22;8222;51.462;12.630;2023-05-07T10:12:45;13.90;99.90
16229;DHT22;8222;51.462;12.630;2023-05-07T10:15:11;14.00;99.90
16229;DHT22;8222;51.462;12.630;2023-05-07T10:17:40;14.10;99.90
16229;DHT22;8222;51.462;12.630;2023-05-07T10:20:07;14.10;99.90
16229;DHT22;8222;51.462;12.630;2023-05-07T10:22:41;14.00;99.90
16229;DHT22;8222;51.462;12.630;2023-05-07T10:25:20;14.00;99.90
16229;DHT22;8222;51.462;12.630;2023-05-07T10:27:50;14.20;99.90
16229;DHT22;8222;51.462;12.630;2023-05-07T10:33:06;14.20;99.90
16229;DHT22;8222;51.462;12.630;2023-05-07T10:35:47;13.90;99.90
16229;DHT22;8222;51.462;12.630;2023-05-07T10:38:16;13.90;99.90
16229;DHT22;8222;51.462;12.630;2023-05-07T10:40:44;14.00;99.90
16229;DHT22;8222;51.462;12.630;2023-05-07T10:43:17;14.00;99.90
16229;DHT22;8222;51.462;12.630;2023-05-07T10:51:36;13.80;99.90
16229;DHT22;8222;51.462;12.630;2023-05-07T10:56:41;13.80;99.90
16229;DHT22;8222;51.462;12.630;2023-05-07T11:04:18;14.20;99.90
16229;DHT22;8222;51.462;12.630;2023-05-07T11:15:06;14.70;99.90
16229;DHT22;8222;51.462;12.630;2023-05-07T11:17:33;14.80;99.90
16229;DHT22;8222;51.462;12.630;2023-05-07T11:20:02;14.50;99.90
16229;DHT22;8222;51.462;12.630;2023-05-07T11:25:04;14.10;99.90
16229;DHT22;8222;51.462;12.630;2023-05-07T11:27:31;14.20;99.90
16229;DHT22;8222;51.462;12.630;2023-05-07T11:30:00;14.10;99.90
16229;DHT22;8222;51.462;12.630;2023-05-07T11:32:32;14.20;99.90
16229;DHT22;8222;51.462;12.630;2023-05-07T11:34:59;14.20;99.90
16229;DHT22;8222;51.462;12.630;2023-05-07T11:37:28;14.40;99.90
16229;DHT22;8222;51.462;12.630;2023-05-07T11:40:06;14.80;99.90
16229;DHT22;8222;51.462;12.630;2023-05-07T11:42:36;14.90;99.90
16229;DHT22;8222;51.462;12.630;2023-05-07T11:45:08;15.00;99.90
16229;DHT22;8222;51.462;12.630;2023-05-07T11:47:34;15.20;99.90
16229;DHT22;8222;51.462;12.630;2023-05-07T11:50:05;15.20;99.90
16229;DHT22;8222;51.462;12.630;2023-05-07T11:52:34;15.40;99.90
16229;DHT22;8222;51.462;12.630;2023-05-07T11:55:01;15.60;99.90
16229;DHT22;8222;51.462;12.630;2023-05-07T11:57:29;15.90;99.90
16229;DHT22;8222;51.462;12.630;2023-05-07T12:00:01;15.70;99.90
16229;DHT22;8222;51.462;12.630;2023-05-07T12:02:30;16.10;99.90
16229;DHT22;8222;51.462;12.630;2023-05-07T12:04:57;16.00;99.90
16229;DHT22;8222;51.462;12.630;2023-05-07T12:07:23;16.00;99.90
16229;DHT22;8222;51.462;12.630;2023-05-07T12:09:50;16.30;99.90
16229;DHT22;8222;51.462;12.630;2023-05-07T12:12:15;16.10;99.90
16229;DHT22;8222;51.462;12.630;2023-05-07T12:14:46;16.00;99.90
16229;DHT22;8222;51.462;12.630;2023-05-07T12:17:14;15.90;99.90
16229;DHT22;8222;51.462;12.630;2023-05-07T12:19:43;16.00;99.90
16229;DHT22;8222;51.462;12.630;2023-05-07T12:22:13;16.00;99.90
16229;DHT22;8222;51.462;12.630;2023-05-07T12:24:58;16.10;99.90
16229;DHT22;8222;51.462;12.630;2023-05-07T12:27:24;16.40;99.90
16229;DHT22;8222;51.462;12.630;2023-05-07T12:29:50;16.70;99.90
16229;DHT22;8222;51.462;12.630;2023-05-07T12:32:17;16.70;99.90
16229;DHT22;8222;51.462;12.630;2023-05-07T12:34:44;16.50;99.90
16229;DHT22;8222;51.462;12.630;2023-05-07T12:37:10;16.10;99.90
16229;DHT22;8222;51.462;12.630;2023-05-07T12:39:38;15.90;99.90
16229;DHT22;8222;51.462;12.630;2023-05-07T12:42:15;16.10;99.90
16229;DHT22;8222;51.462;12.630;2023-05-07T12:44:45;16.20;99.90
16229;DHT22;8222;51.462;12.630;2023-05-07T12:47:11;16.30;99.90
16229;DHT22;8222;51.462;12.630;2023-05-07T12:49:37;16.10;99.90
16229;DHT22;8222;51.462;12.630;2023-05-07T12:52:04;16.10;99.90
16229;DHT22;8222;51.462;12.630;2023-05-07T12:54:34;16.20;99.90
16229;DHT22;8222;51.462;12.630;2023-05-07T12:57:06;16.50;99.90
16229;DHT22;8222;51.462;12.630;2023-05-07T12:59:40;16.40;99.90
16229;DHT22;8222;51.462;12.630;2023-05-07T13:02:08;16.30;99.90
16229;DHT22;8222;51.462;12.630;2023-05-07T13:04:35;16.60;99.90
16229;DHT22;8222;51.462;12.630;2023-05-07T13:07:01;16.60;99.90
16229;DHT22;8222;51.462;12.630;2023-05-07T13:09:30;16.60;99.90
16229;DHT22;8222;51.462;12.630;2023-05-07T13:11:57;16.60;99.90
16229;DHT22;8222;51.462;12.630;2023-05-07T13:14:25;16.60;99.90
16229;DHT22;8222;51.462;12.630;2023-05-07T13:16:53;16.80;99.90
16229;DHT22;8222;51.462;12.630;2023-05-07T13:19:19;16.50;99.90
16229;DHT22;8222;51.462;12.630;2023-05-07T13:21:45;16.40;99.90
16229;DHT22;8222;51.462;12.630;2023-05-07T13:24:10;16.40;99.90
16229;DHT22;8222;51.462;12.630;2023-05-07T13:26:38;16.40;99.90
16229;DHT22;8222;51.462;12.630;2023-05-07T13:29:04;16.40;99.90
16229;DHT22;8222;51.462;12.630;2023-05-07T13:31:33;16.40;99.90
16229;DHT22;8222;51.462;12.630;2023-05-07T13:33:59;16.50;99.90
16229;DHT22;8222;51.462;12.630;2023-05-07T13:36:25;16.70;99.90
16229;DHT22;8222;51.462;12.630;2023-05-07T13:38:53;16.60;99.90
16229;DHT22;8222;51.462;12.630;2023-05-07T13:41:21;16.60;99.90
16229;DHT22;8222;51.462;12.630;2023-05-07T13:43:47;16.80;99.90
16229;DHT22;8222;51.462;12.630;2023-05-07T13:46:17;17.00;99.90
16229;DHT22;8222;51.462;12.630;2023-05-07T13:48:43;16.70;99.90
16229;DHT22;8222;51.462;12.630;2023-05-07T13:51:11;16.50;99.90
16229;DHT22;8222;51.462;12.630;2023-05-07T13:53:39;16.50;99.90
16229;DHT22;8222;51.462;12.630;2023-05-07T13:56:05;16.90;99.90
16229;DHT22;8222;51.462;12.630;2023-05-07T13:58:31;16.80;99.90
16229;DHT22;8222;51.462;12.630;2023-05-07T14:00:59;16.80;99.90
16229;DHT22;8222;51.462;12.630;2023-05-07T14:03:28;16.80;99.90
16229;DHT22;8222;51.462;12.630;2023-05-07T14:05:55;16.70;99.90
16229;DHT22;8222;51.462;12.630;2023-05-07T14:08:23;16.70;99.90
16229;DHT22;8222;51.462;12.630;2023-05-07T14:10:48;16.80;99.90
16229;DHT22;8222;51.462;12.630;2023-05-07T14:13:14;16.80;99.90
16229;DHT22;8222;51.462;12.630;2023-05-07T14:15:42;16.90;99.90
16229;DHT22;8222;51.462;12.630;2023-05-07T14:18:15;16.90;99.90
16229;DHT22;8222;51.462;12.630;2023-05-07T14:20:45;16.80;99.90
16229;DHT22;8222;51.462;12.630;2023-05-07T14:23:13;17.00;99.90
16229;DHT22;8222;51.462;12.630;2023-05-07T14:25:39;17.10;99.90
16229;DHT22;8222;51.462;12.630;2023-05-07T14:28:05;17.30;99.90
16229;DHT22;8222;51.462;12.630;2023-05-07T14:30:32;17.70;99.90
16229;DHT22;8222;51.462;12.630;2023-05-07T14:32:58;18.00;99.90
16229;DHT22;8222;51.462;12.630;2023-05-07T14:35:24;18.00;99.90
16229;DHT22;8222;51.462;12.630;2023-05-07T14:37:52;17.90;99.90
16229;DHT22;8222;51.462;12.630;2023-05-07T14:40:17;17.90;99.90
16229;DHT22;8222;51.462;12.630;2023-05-07T14:42:43;17.70;99.90
16229;DHT22;8222;51.462;12.630;2023-05-07T14:45:09;17.90;99.90
16229;DHT22;8222;51.462;12.630;2023-05-07T14:47:35;18.10;99.90
16229;DHT22;8222;51.462;12.630;2023-05-07T14:50:01;18.00;99.90
16229;DHT22;8222;51.462;12.630;2023-05-07T14:52:29;17.90;99.90
16229;DHT22;8222;51.462;12.630;2023-05-07T14:54:55;17.70;99.90
16229;DHT22;8222;51.462;12.630;2023-05-07T14:57:23;17.60;99.90
16229;DHT22;8222;51.462;12.630;2023-05-07T14:59:49;17.60;99.90
16229;DHT22;8222;51.462;12.630;2023-05-07T15:02:15;16.90;99.90
16229;DHT22;8222;51.462;12.630;2023-05-07T15:04:41;16.60;99.90
16229;DHT22;8222;51.462;12.630;2023-05-07T15:07:14;16.60;99.90
16229;DHT22;8222;51.462;12.630;2023-05-07T15:09:43;16.80;99.90
16229;DHT22;8222;51.462;12.630;2023-05-07T15:12:12;17.30;99.90
16229;DHT22;8222;51.462;12.630;2023-05-07T15:14:42;17.10;99.90
16229;DHT22;8222;51.462;12.630;2023-05-07T15:17:08;17.00;99.90
16229;DHT22;8222;51.462;12.630;2023-05-07T15:19:35;17.00;99.90
16229;DHT22;8222;51.462;12.630;2023-05-07T15:22:04;17.00;99.90
16229;DHT22;8222;51.462;12.630;2023-05-07T15:24:30;16.90;99.90
16229;DHT22;8222;51.462;12.630;2023-05-07T15:26:56;16.90;99.90
16229;DHT22;8222;51.462;12.630;2023-05-07T15:29:23;16.70;99.90
16229;DHT22;8222;51.462;12.630;2023-05-07T15:31:50;16.40;99.90
16229;DHT22;8222;51.462;12.630;2023-05-07T15:34:17;16.30;99.90
16229;DHT22;8222;51.462;12.630;2023-05-07T15:36:43;16.30;99.90
16229;DHT22;8222;51.462;12.630;2023-05-07T15:39:11;16.10;99.90
16229;DHT22;8222;51.462;12.630;2023-05-07T15:41:37;16.10;99.90
16229;DHT22;8222;51.462;12.630;2023-05-07T15:44:03;16.00;99.90
16229;DHT22;8222;51.462;12.630;2023-05-07T15:46:31;15.80;99.90
16229;DHT22;8222;51.462;12.630;2023-05-07T15:49:02;15.70;99.90
16229;DHT22;8222;51.462;12.630;2023-05-07T15:51:35;15.80;99.90
16229;DHT22;8222;51.462;12.630;2023-05-07T15:54:01;15.70;99.90
16229;DHT22;8222;51.462;12.630;2023-05-07T15:56:27;15.60;99.90
16229;DHT22;8222;51.462;12.630;2023-05-07T15:58:52;15.70;99.90
16229;DHT22;8222;51.462;12.630;2023-05-07T16:01:18;15.50;99.90